Latest Coastal Weather Observations for Ballina

IDN60701

Issued at 12:25 pm EDT Saturday 29 November 2014 (issued every 10 minutes, with the page automatically refreshed every 10 minutes)

About coastal observations | Map of coastal stations | Coastal observations for NSW | Marine services | Other Formats
Station Details ID: 058198 Name: BALLINA AIRPORT AWS Lat: -28.84 Lon: 153.56 Height: 1.3 m
Data from the previous 72 hours. | See also: Recent months at Ballina
Date/Time
EDT
Temp

°C
Wind Pressure Rain
since 9am
mm
Weather Cloud Vis
km
Sea
Height
m
Swell
Dir
 
Speed
knots
Gust
knots
hPa Trend Height
m
Period
s
Dir
29/12:00pm 24.7 ESE 8 13 1020.0 - 0.0 - - 10 - - - -
29/11:30am 24.6 E 10 14 1020.2 - 0.0 - - 10 - - - -
29/11:00am 24.6 E 10 15 1020.3 - 0.0 - - 10 - - - -
29/10:30am 24.5 E 9 12 1020.4 - 0.0 - - 10 - - - -
29/10:00am 24.0 E 10 15 1020.4 - 0.0 - Partly cloudy 10 - - - -
29/09:30am 24.2 E 7 10 1020.4 - 0.0 - Partly cloudy 10 - - - -
29/09:00am 23.5 ENE 7 11 1020.3 - 0.2 - Mostly clear 10 - - - -
29/08:30am 23.6 E 6 10 1020.3 - 0.2 - - 10 - - - -
29/08:00am 22.7 E 7 10 1020.3 - 0.2 - Partly cloudy 10 - - - -
29/07:30am 19.9 CALM 0 0 1020.1 - 0.2 - Partly cloudy 10 - - - -
29/07:00am 18.5 CALM 0 0 1019.9 - 0.2 - Partly cloudy 10 - - - -
29/06:30am 16.6 W 1 3 1019.7 - 0.2 - Cloudy 10 - - - -
29/06:00am 15.0 W 3 4 1019.3 - 0.2 - Partly cloudy 10 - - - -
29/05:30am 14.7 W 4 4 1019.2 - 0.2 - - 10 - - - -
29/05:00am 14.9 W 2 4 1018.9 - 0.2 - - 10 - - - -
29/04:30am 15.8 W 3 4 1018.8 - 0.2 - Partly cloudy 10 - - - -
29/04:00am 16.0 W 4 5 1018.7 - 0.2 - - 10 - - - -
29/03:30am 15.8 W 1 4 1018.7 - 0.2 - Partly cloudy 10 - - - -
29/03:00am 16.6 CALM 0 3 1018.8 - 0.2 - Mostly clear 10 - - - -
29/02:30am 16.6 W 1 4 1018.9 - 0.2 - Partly cloudy 10 - - - -
29/02:00am 17.3 W 1 3 1019.1 - 0.2 - Partly cloudy 10 - - - -
29/01:30am 17.5 W 4 5 1019.5 - 0.2 - Partly cloudy 10 - - - -
29/01:00am 17.4 SW 1 4 1020.0 - 0.2 - Partly cloudy 10 - - - -
29/12:30am 17.6 CALM 0 3 1020.2 - 0.2 - Partly cloudy 10 - - - -
29/12:00am 19.1 E 4 5 1020.4 - 0.2 - - 10 - - - -
 
Date/Time
EDT
Temp

°C
Wind Pressure Rain
since 9am
mm
Weather Cloud Vis
km
Sea
Height
m
Swell
Dir
 
Speed
knots
Gust
knots
hPa Trend Height
m
Period
s
Dir
28/11:30pm 19.9 E 5 6 1020.6 - 0.2 - - 10 - - - -
28/11:00pm 20.5 E 6 8 1020.6 - 0.2 - Partly cloudy 10 - - - -
28/10:30pm 21.1 E 6 9 1020.8 - 0.2 - Partly cloudy 10 - - - -
28/10:00pm 21.1 E 5 8 1020.7 - 0.2 - Partly cloudy 10 - - - -
28/09:30pm 21.5 E 6 10 1020.6 - 0.2 - Partly cloudy 10 - - - -
28/09:00pm 21.0 E 6 9 1020.4 - 0.2 - Cloudy 10 - - - -
28/08:30pm 21.2 E 7 11 1019.9 - 0.2 - Partly cloudy 10 - - - -
28/08:00pm 21.3 E 7 12 1019.8 - 0.2 - - 10 - - - -
28/07:30pm 21.6 ESE 8 11 1019.8 - 0.2 - Partly cloudy 10 - - - -
28/07:00pm 22.3 E 8 13 1019.6 - 0.2 - - 10 - - - -
28/06:30pm 23.1 ESE 9 12 1019.5 - 0.2 - - 10 - - - -
28/06:00pm 23.6 ESE 11 13 1019.4 - 0.2 - - 10 - - - -
28/05:30pm 23.9 ESE 9 13 1019.2 - 0.2 - Partly cloudy 10 - - - -
28/05:00pm 24.5 ESE 12 16 1019.3 - 0.2 - Partly cloudy 10 - - - -
28/04:30pm 24.6 ESE 9 14 1019.5 - 0.2 - Partly cloudy 10 - - - -
28/04:00pm 22.4 SE 9 13 1019.7 - 0.2 - Partly cloudy 10 - - - -
28/03:30pm 23.0 ESE 10 13 1020.0 - 0.2 - Partly cloudy 10 - - - -
28/03:00pm 23.4 ESE 9 15 1020.1 - 0.2 - Cloudy 10 - - - -
28/02:30pm 25.3 ESE 10 16 1020.1 - 0.2 - - 10 - - - -
28/02:00pm 25.4 ESE 11 14 1020.3 - 0.2 - - 10 - - - -
28/01:30pm 25.4 ESE 13 17 1020.5 - 0.2 - - 10 - - - -
28/01:00pm 25.4 ESE 14 21 1020.7 - 0.2 - - 10 - - - -
28/12:30pm 24.8 SE 15 19 1020.9 - 0.2 - Partly cloudy 10 - - - -
28/12:00pm 24.9 ESE 14 20 1020.9 - 0.2 Recent precip. Mostly cloudy 10 - - - -
28/11:30am 24.5 ESE 15 21 1021.0 - 0.2 - Partly cloudy 10 - - - -
28/11:00am 24.7 ESE 15 20 1020.9 - 0.0 - Partly cloudy 10 - - - -
28/10:30am 24.1 SE 15 21 1020.8 - 0.0 - Partly cloudy 10 - - - -
28/10:00am 24.0 SE 13 17 1020.5 - 0.0 - Cloudy 10 - - - -
28/09:30am 22.5 SE 12 19 1020.5 - 0.0 - Partly cloudy 10 - - - -
28/09:00am 21.7 ESE 10 15 1020.4 - 1.4 - Cloudy 10 - - - -
28/08:30am 20.8 S 7 10 1020.3 - 1.4 - Partly cloudy 10 - - - -
28/08:00am 20.8 SSE 12 17 1020.0 - 1.4 - Partly cloudy 10 - - - -
28/07:30am 20.2 SSE 12 17 1019.6 - 1.4 - Cloudy 10 - - - -
28/07:00am 19.6 SW 5 9 1019.3 - 1.4 - Partly cloudy 6 - - - -
28/06:47am 19.4 W 8 10 1019.3 - 1.4 - Partly cloudy 10 - - - -
28/06:30am 19.4 SW 7 12 1019.2 - 1.4 - Partly cloudy 3 - - - -
28/06:11am 20.2 SSW 7 12 1019.0 - 1.4 - Partly cloudy 5 - - - -
28/06:00am 20.7 S 5 8 1018.8 - 1.4 - Cloudy 10 - - - -
28/05:30am 20.8 SSE 7 9 1018.6 - 1.4 - Partly cloudy 10 - - - -
28/05:00am 21.4 S 8 12 1018.1 - 1.4 - Partly cloudy 10 - - - -
28/04:30am 21.4 S 7 10 1017.8 - 1.4 - Partly cloudy 10 - - - -
28/04:00am 21.4 SSE 8 12 1017.7 - 1.4 - Cloudy 10 - - - -
28/03:30am 21.4 S 6 9 1017.9 - 1.4 - Partly cloudy 10 - - - -
28/03:00am 21.3 S 7 10 1018.2 - 1.4 Rain Cloudy 10 - - - -
28/02:30am 21.4 SSE 9 12 1018.3 - 1.2 - Partly cloudy 10 - - - -
28/02:00am 21.2 SSE 10 15 1018.6 - 1.2 - Partly cloudy 10 - - - -
28/01:30am 21.1 SSW 7 12 1018.7 - 1.2 - Partly cloudy 10 - - - -
28/01:00am 21.6 SE 10 13 1018.8 - 1.2 - Partly cloudy 10 - - - -
28/12:30am 21.6 SE 10 15 1019.0 - 1.2 - Partly cloudy 10 - - - -
28/12:00am 21.6 SSE 9 12 1019.2 - 1.2 - Mostly cloudy 10 - - - -
 
Date/Time
EDT
Temp

°C
Wind Pressure Rain
since 9am
mm
Weather Cloud Vis
km
Sea
Height
m
Swell
Dir
 
Speed
knots
Gust
knots
hPa Trend Height
m
Period
s
Dir
27/11:30pm 21.5 SSE 9 11 1019.3 - 1.2 - Partly cloudy 10 - - - -
27/11:00pm 21.5 SSE 10 14 1019.3 - 1.2 - Partly cloudy 10 - - - -
27/10:30pm 21.6 SSE 12 18 1018.9 - 1.2 - Partly cloudy 10 - - - -
27/10:00pm 21.2 SSE 11 15 1019.0 - 1.2 - Partly cloudy 10 - - - -
27/09:48pm 21.1 S 7 10 1019.0 - 1.2 - Partly cloudy 10 - - - -
27/09:37pm 21.0 SE 7 8 1018.9 - 1.2 - Partly cloudy 5 - - - -
27/09:30pm 20.8 SE 7 10 1018.9 - 1.2 - Partly cloudy 8 - - - -
27/09:15pm 21.1 SSE 8 14 1018.7 - 1.2 - Partly cloudy 8 - - - -
27/09:14pm 21.1 SSE 8 13 1018.7 - 1.2 - Partly cloudy 8 - - - -
27/09:00pm 21.0 S 9 14 1018.7 - 1.2 Rain Cloudy 2 - - - -
27/08:59pm 21.0 S 9 14 1018.7 - 1.2 - Partly cloudy 2 - - - -
27/08:58pm 21.0 S 9 14 1018.7 - 1.2 - Partly cloudy 2 - - - -
27/08:46pm 21.1 S 11 17 1018.7 - 1.0 - Partly cloudy 3 - - - -
27/08:30pm 22.2 SSW 8 14 1018.4 - 1.0 - Partly cloudy 4 - - - -
27/08:08pm 22.0 S 4 5 1017.6 - 1.0 - Partly cloudy 2 - - - -
27/08:00pm 21.9 SSE 4 6 1017.6 - 1.0 - Partly cloudy 10 - - - -
27/07:30pm 22.1 S 4 6 1017.6 - 1.0 - Partly cloudy 10 - - - -
27/07:00pm 22.9 S 9 13 1017.4 - 1.0 - Partly cloudy 10 - - - -
27/06:30pm 22.8 SW 7 10 1017.1 - 1.0 - Partly cloudy 10 - - - -
27/06:00pm 22.9 SSW 7 12 1016.6 - 1.0 - Cloudy 10 - - - -
27/05:30pm 22.4 SSW 8 12 1016.1 - 1.0 - Partly cloudy 10 - - - -
27/05:00pm 22.1 S 9 12 1016.0 - 1.0 - Partly cloudy 10 - - - -
27/04:30pm 22.5 S 9 14 1015.9 - 0.8 - Partly cloudy 10 - - - -
27/04:00pm 22.9 SSE 14 18 1015.7 - 0.8 - - 10 - - - -
27/03:30pm 24.7 SSE 13 17 1015.3 - 0.8 - Partly cloudy 10 - - - -
27/03:00pm 24.2 S 13 19 1015.7 - 0.8 Recent precip. Cloudy 10 - - - -
27/02:30pm 23.8 S 14 20 1015.7 - 0.8 - Partly cloudy 10 - - - -
27/02:00pm 25.0 SSE 15 21 1016.1 - 0.6 - Partly cloudy 10 - - - -
27/01:30pm 24.6 SSE 13 19 1016.1 - 0.6 - - 10 - - - -
27/01:10pm 24.8 SSE 12 19 1016.1 - 0.6 - Partly cloudy 10 - - - -
27/01:00pm 24.3 SSE 14 19 1016.3 - 0.6 - Partly cloudy 10 - - - -
27/12:30pm 24.3 S 13 20 1016.4 - 0.6 - Partly cloudy 10 - - - -
27/12:00pm 24.9 SSE 14 19 1016.3 - 0.4 Recent precip. Partly cloudy 10 - - - -
27/11:30am 26.5 SE 8 10 1016.0 - 0.4 - Partly cloudy 10 - - - -
27/11:00am 27.6 SE 6 8 1016.1 - 0.2 - Partly cloudy 10 - - - -
27/10:30am 25.7 ESE 7 9 1016.3 - 0.2 - Cloudy 10 - - - -
27/10:00am 26.5 NW 3 6 1016.4 - 0.2 - Partly cloudy 10 - - - -
27/09:30am 26.7 NNW 6 10 1016.4 - 0.0 - - 10 - - - -
27/09:00am 25.2 N 7 9 1016.4 - 13.0 Rain Mostly clear 10 - - - -
27/08:30am 23.8 NNW 4 6 1016.6 - 12.8 - - 10 - - - -
27/08:00am 22.4 NNW 3 4 1016.5 - 12.6 - - 10 - - - -
27/07:30am 21.9 N 4 5 1016.3 - 12.6 - - 10 - - - -
27/07:00am 21.2 N 3 4 1016.0 - 12.4 - - 10 - - - -
27/06:30am 20.2 NE 3 4 1015.7 - 12.4 - Partly cloudy 10 - - - -
27/06:29am 20.2 NE 3 4 1015.7 - 12.4 - Partly cloudy 10 - - - -
27/06:00am 19.5 NNE 3 4 1015.4 - 12.2 Recent precip. Cloudy 0.5 - - - -
27/05:43am 19.7 CALM 0 0 1015.3 - 12.2 - Partly cloudy 2 - - - -
27/05:30am 19.8 CALM 0 0 1015.4 - 12.2 - Partly cloudy 1 - - - -
27/05:00am 20.1 CALM 0 0 1015.2 - 12.0 - Cloudy 0.2 - - - -
27/04:30am 20.3 WNW 1 3 1015.2 - 12.0 - Cloudy 2 - - - -
27/04:00am 20.7 W 4 6 1015.2 - 11.8 - Cloudy 0.8 - - - -
27/03:30am 20.7 W 4 5 1015.2 - 11.6 - Cloudy 0.2 - - - -
27/03:00am 20.7 N 4 6 1015.1 - 11.4 Recent precip. Cloudy 0.5 - - - -
27/02:30am 20.6 ENE 4 5 1015.5 - 11.2 - Cloudy 2 - - - -
27/02:00am 20.9 CALM 0 3 1016.0 - 11.2 - Cloudy 4 - - - -
27/01:38am 21.1 S 5 7 1016.1 - 11.0 - Partly cloudy 5 - - - -
27/01:33am 21.2 S 4 6 1016.0 - 11.0 - Partly cloudy 8 - - - -
27/01:30am 21.2 SSW 4 6 1016.1 - 10.8 - Partly cloudy 8 - - - -
27/01:14am 20.9 CALM 0 0 1016.1 - 10.8 - - 5 - - - -
27/01:00am 21.0 NE 3 4 1016.2 - 10.6 - - 8 - - - -
27/12:30am 21.3 SSW 2 7 1016.6 - 10.4 - Partly cloudy 10 - - - -
27/12:00am 21.3 N 6 8 1016.8 - 10.0 Recent precip. Cloudy 10 - - - -
 
Date/Time
EDT
Temp

°C
Wind Pressure Rain
since 9am
mm
Weather Cloud Vis
km
Sea
Height
m
Swell
Dir
 
Speed
knots
Gust
knots
hPa Trend Height
m
Period
s
Dir
26/11:30pm 21.3 NNE 4 6 1017.0 - 9.8 - Partly cloudy 7 - - - -
26/11:26pm 21.3 NE 4 6 1017.0 - 9.8 - Partly cloudy 8 - - - -
26/11:16pm 21.4 E 4 6 1017.2 - 9.6 - Partly cloudy 8 - - - -
26/11:00pm 21.3 SW 1 4 1017.3 - 9.4 - Partly cloudy 7 - - - -
26/10:30pm 21.3 WSW 4 6 1017.6 - 9.0 - - 10 - - - -
26/10:00pm 21.3 NE 6 7 1017.0 - 8.6 - - 7 - - - -
26/09:30pm 21.3 E 5 7 1016.9 - 8.2 - Partly cloudy 7 - - - -
26/09:00pm 21.1 SE 2 5 1017.1 - 7.8 Rain Cloudy 7 - - - -
26/08:30pm 21.4 W 5 6 1017.2 - 7.2 - - 10 - - - -
26/08:00pm 21.5 CALM 0 0 1017.2 - 6.8 - Partly cloudy 8 - - - -
26/07:30pm 21.4 CALM 0 0 1017.2 - 6.2 - Partly cloudy 9 - - - -
26/07:20pm 21.4 CALM 0 0 1017.0 - 6.0 - Partly cloudy 9 - - - -
26/07:00pm 21.5 W 1 4 1016.7 - 5.6 - Partly cloudy 9 - - - -
26/06:30pm 21.2 W 3 4 1016.5 - 5.0 - Partly cloudy 9 - - - -
26/06:00pm 21.2 SW 5 7 1016.5 - 4.4 Rain Cloudy 10 - - - -
26/05:30pm 21.6 SW 4 6 1016.3 - 3.6 - Cloudy 9 - - - -
26/05:08pm 21.2 WSW 5 6 1016.5 - 3.2 - Partly cloudy 9 - - - -
26/05:06pm 21.3 WSW 5 6 1016.5 - 3.2 - Partly cloudy 8 - - - -
26/05:00pm 21.2 SW 6 7 1016.6 - 3.0 - Partly cloudy 6 - - - -
26/04:30pm 21.5 SSW 4 6 1016.6 - 2.2 - Partly cloudy 5 - - - -
26/04:00pm 21.5 S 5 7 1016.5 - 1.4 - Partly cloudy 1 - - - -
26/03:30pm 21.7 SSE 3 6 1016.6 - 0.8 - Partly cloudy 4 - - - -
26/03:09pm 21.9 SSW 8 12 1016.6 - 0.2 - Partly cloudy 4 - - - -
26/03:06pm 22.1 SSW 8 11 1016.7 - 0.2 - Partly cloudy 7 - - - -
26/03:00pm 22.2 SSW 8 12 1016.9 - 0.2 Rain Cloudy 6 - - - -
26/02:56pm 22.3 SSW 8 12 1016.8 - 0.0 - Partly cloudy 5 - - - -
26/02:30pm 23.8 S 11 16 1016.2 - 0.0 - Partly cloudy 10 - - - -
26/02:00pm 24.4 S 12 17 1016.5 - 0.0 - Partly cloudy 10 - - - -
26/01:30pm 25.5 S 11 15 1016.4 - 0.0 - Partly cloudy 10 - - - -
26/01:00pm 26.6 S 12 16 1016.7 - 0.0 - - 10 - - - -
26/12:30pm 26.5 S 10 13 1017.0 - 0.0 - Partly cloudy 10 - - - -

Other Formats:

Comma delimited format used in spreadsheet applications
http://www.bom.gov.au/fwo/IDN60701/IDN60701.94596.axf

JavaScript Object Notation format (JSON) in row-major order
http://www.bom.gov.au/fwo/IDN60701/IDN60701.94596.json